sensor_id;sensor_type;location;lat;lon;timestamp;pressure;altitude;pressure_sealevel;temperature;humidity
37610;BME280;23457;51.966;8.230;2023-02-10T00:01:13;102781.16;;;4.07;94.04
37610;BME280;23457;51.966;8.230;2023-02-10T00:03:40;102777.00;;;3.86;93.89
37610;BME280;23457;51.966;8.230;2023-02-10T00:06:09;102772.34;;;4.04;93.86
37610;BME280;23457;51.966;8.230;2023-02-10T00:08:36;102774.53;;;3.87;94.79
37610;BME280;23457;51.966;8.230;2023-02-10T00:11:10;102777.63;;;4.05;94.07
37610;BME280;23457;51.966;8.230;2023-02-10T00:13:38;102783.56;;;4.27;93.23
37610;BME280;23457;51.966;8.230;2023-02-10T00:16:09;102788.91;;;4.19;93.49
37610;BME280;23457;51.966;8.230;2023-02-10T00:18:36;102777.28;;;4.24;93.24
37610;BME280;23457;51.966;8.230;2023-02-10T00:21:12;102777.94;;;4.21;92.78
37610;BME280;23457;51.966;8.230;2023-02-10T00:23:39;102792.19;;;4.28;92.88
37610;BME280;23457;51.966;8.230;2023-02-10T00:26:07;102790.25;;;4.14;93.35
37610;BME280;23457;51.966;8.230;2023-02-10T00:28:35;102784.91;;;4.34;93.18
37610;BME280;23457;51.966;8.230;2023-02-10T00:31:07;102779.44;;;4.29;93.54
37610;BME280;23457;51.966;8.230;2023-02-10T00:33:34;102779.31;;;4.28;93.47
37610;BME280;23457;51.966;8.230;2023-02-10T00:36:09;102775.97;;;4.29;93.76
37610;BME280;23457;51.966;8.230;2023-02-10T00:38:37;102778.19;;;4.36;92.99
37610;BME280;23457;51.966;8.230;2023-02-10T00:41:12;102780.53;;;4.33;93.51
37610;BME280;23457;51.966;8.230;2023-02-10T00:43:39;102778.06;;;4.35;93.69
37610;BME280;23457;51.966;8.230;2023-02-10T00:46:06;102790.06;;;4.46;93.35
37610;BME280;23457;51.966;8.230;2023-02-10T00:48:34;102797.66;;;4.44;92.82
37610;BME280;23457;51.966;8.230;2023-02-10T00:51:01;102789.63;;;4.40;93.43
37610;BME280;23457;51.966;8.230;2023-02-10T00:53:28;102792.06;;;4.50;93.30
37610;BME280;23457;51.966;8.230;2023-02-10T00:55:55;102801.69;;;4.29;94.40
37610;BME280;23457;51.966;8.230;2023-02-10T00:58:23;102802.09;;;4.12;96.06
37610;BME280;23457;51.966;8.230;2023-02-10T01:00:50;102798.66;;;4.23;96.40
37610;BME280;23457;51.966;8.230;2023-02-10T01:03:16;102801.13;;;4.21;96.22
37610;BME280;23457;51.966;8.230;2023-02-10T01:05:43;102805.03;;;4.16;96.07
37610;BME280;23457;51.966;8.230;2023-02-10T01:08:13;102814.22;;;4.36;95.76
37610;BME280;23457;51.966;8.230;2023-02-10T01:10:40;102807.28;;;4.35;96.35
37610;BME280;23457;51.966;8.230;2023-02-10T01:13:09;102810.16;;;4.05;97.62
37610;BME280;23457;51.966;8.230;2023-02-10T01:15:35;102804.59;;;4.33;96.25
37610;BME280;23457;51.966;8.230;2023-02-10T01:18:02;102810.97;;;4.27;97.16
37610;BME280;23457;51.966;8.230;2023-02-10T01:20:29;102808.31;;;4.37;97.17
37610;BME280;23457;51.966;8.230;2023-02-10T01:22:56;102810.19;;;4.28;97.16
37610;BME280;23457;51.966;8.230;2023-02-10T01:25:23;102812.19;;;4.32;97.00
37610;BME280;23457;51.966;8.230;2023-02-10T01:27:50;102812.44;;;4.35;97.15
37610;BME280;23457;51.966;8.230;2023-02-10T01:30:16;102821.06;;;4.36;97.21
37610;BME280;23457;51.966;8.230;2023-02-10T01:32:43;102816.56;;;4.33;97.93
37610;BME280;23457;51.966;8.230;2023-02-10T01:35:10;102819.13;;;4.33;98.34
37610;BME280;23457;51.966;8.230;2023-02-10T01:37:36;102815.56;;;4.31;98.09
37610;BME280;23457;51.966;8.230;2023-02-10T01:40:04;102818.72;;;4.39;97.84
37610;BME280;23457;51.966;8.230;2023-02-10T01:42:31;102812.66;;;4.38;98.01
37610;BME280;23457;51.966;8.230;2023-02-10T01:45:33;102811.66;;;4.36;98.41
37610;BME280;23457;51.966;8.230;2023-02-10T01:48:01;102813.09;;;4.21;99.34
37610;BME280;23457;51.966;8.230;2023-02-10T01:50:31;102815.88;;;4.24;99.27
37610;BME280;23457;51.966;8.230;2023-02-10T01:53:01;102811.31;;;4.31;98.56
37610;BME280;23457;51.966;8.230;2023-02-10T01:55:31;102812.19;;;4.32;98.52
37610;BME280;23457;51.966;8.230;2023-02-10T01:58:03;102817.34;;;4.32;99.01
37610;BME280;23457;51.966;8.230;2023-02-10T02:00:30;102820.03;;;4.22;99.21
37610;BME280;23457;51.966;8.230;2023-02-10T02:02:57;102818.22;;;4.21;99.81
37610;BME280;23457;51.966;8.230;2023-02-10T02:05:34;102807.72;;;4.18;100.00
37610;BME280;23457;51.966;8.230;2023-02-10T02:08:07;102814.09;;;4.23;100.00
37610;BME280;23457;51.966;8.230;2023-02-10T02:11:00;102824.88;;;4.29;100.00
37610;BME280;23457;51.966;8.230;2023-02-10T02:13:47;102817.88;;;4.05;100.00
37610;BME280;23457;51.966;8.230;2023-02-10T02:16:43;102812.63;;;4.03;100.00
37610;BME280;23457;51.966;8.230;2023-02-10T02:22:33;102821.13;;;4.14;100.00
37610;BME280;23457;51.966;8.230;2023-02-10T02:28:08;102827.31;;;4.16;100.00
37610;BME280;23457;51.966;8.230;2023-02-10T02:34:16;102820.81;;;4.21;100.00
37610;BME280;23457;51.966;8.230;2023-02-10T02:36:54;102820.03;;;4.22;100.00
37610;BME280;23457;51.966;8.230;2023-02-10T02:39:22;102831.44;;;4.14;100.00
37610;BME280;23457;51.966;8.230;2023-02-10T02:44:42;102823.22;;;4.08;100.00
37610;BME280;23457;51.966;8.230;2023-02-10T02:58:20;102824.22;;;3.98;100.00
37610;BME280;23457;51.966;8.230;2023-02-10T03:00:52;102820.41;;;3.93;100.00
37610;BME280;23457;51.966;8.230;2023-02-10T03:03:21;102820.34;;;3.81;100.00
37610;BME280;23457;51.966;8.230;2023-02-10T03:05:48;102821.47;;;3.73;100.00
37610;BME280;23457;51.966;8.230;2023-02-10T03:08:15;102830.19;;;3.75;100.00
37610;BME280;23457;51.966;8.230;2023-02-10T03:10:41;102822.94;;;3.81;100.00
37610;BME280;23457;51.966;8.230;2023-02-10T03:13:08;102809.38;;;3.72;100.00
37610;BME280;23457;51.966;8.230;2023-02-10T03:15:35;102811.00;;;3.60;100.00
37610;BME280;23457;51.966;8.230;2023-02-10T03:18:02;102817.59;;;3.56;100.00
37610;BME280;23457;51.966;8.230;2023-02-10T03:20:28;102821.72;;;3.33;100.00
37610;BME280;23457;51.966;8.230;2023-02-10T03:22:55;102807.72;;;3.51;100.00
37610;BME280;23457;51.966;8.230;2023-02-10T03:25:21;102811.31;;;3.53;100.00
37610;BME280;23457;51.966;8.230;2023-02-10T03:27:48;102815.63;;;3.20;100.00
37610;BME280;23457;51.966;8.230;2023-02-10T03:30:15;102807.63;;;3.28;100.00
37610;BME280;23457;51.966;8.230;2023-02-10T03:32:41;102808.97;;;3.34;100.00
37610;BME280;23457;51.966;8.230;2023-02-10T03:35:08;102805.94;;;3.50;100.00
37610;BME280;23457;51.966;8.230;2023-02-10T03:37:35;102808.03;;;3.44;100.00
37610;BME280;23457;51.966;8.230;2023-02-10T03:40:02;102818.63;;;3.37;100.00
37610;BME280;23457;51.966;8.230;2023-02-10T03:42:29;102815.72;;;3.44;100.00
37610;BME280;23457;51.966;8.230;2023-02-10T03:44:55;102820.59;;;3.29;100.00
37610;BME280;23457;51.966;8.230;2023-02-10T03:47:22;102817.22;;;3.30;100.00
37610;BME280;23457;51.966;8.230;2023-02-10T03:49:48;102819.50;;;3.37;100.00
37610;BME280;23457;51.966;8.230;2023-02-10T03:52:15;102819.50;;;3.37;100.00
37610;BME280;23457;51.966;8.230;2023-02-10T03:54:42;102818.31;;;3.22;100.00
37610;BME280;23457;51.966;8.230;2023-02-10T03:57:10;102818.69;;;3.27;100.00
37610;BME280;23457;51.966;8.230;2023-02-10T03:59:37;102814.66;;;3.08;100.00
37610;BME280;23457;51.966;8.230;2023-02-10T04:02:04;102813.22;;;3.12;100.00
37610;BME280;23457;51.966;8.230;2023-02-10T04:04:31;102819.69;;;3.29;100.00
37610;BME280;23457;51.966;8.230;2023-02-10T04:06:57;102817.22;;;3.30;100.00
37610;BME280;23457;51.966;8.230;2023-02-10T04:09:24;102823.03;;;3.28;100.00
37610;BME280;23457;51.966;8.230;2023-02-10T04:11:50;102823.81;;;3.27;100.00
37610;BME280;23457;51.966;8.230;2023-02-10T04:14:17;102827.69;;;3.21;100.00
37610;BME280;23457;51.966;8.230;2023-02-10T04:16:44;102819.44;;;3.26;100.00
37610;BME280;23457;51.966;8.230;2023-02-10T04:19:10;102823.44;;;3.22;100.00
37610;BME280;23457;51.966;8.230;2023-02-10T04:21:37;102821.81;;;3.12;100.00
37610;BME280;23457;51.966;8.230;2023-02-10T04:24:04;102831.47;;;3.05;100.00
37610;BME280;23457;51.966;8.230;2023-02-10T04:26:31;102825.63;;;3.17;100.00
37610;BME280;23457;51.966;8.230;2023-02-10T04:28:58;102821.81;;;3.12;100.00
37610;BME280;23457;51.966;8.230;2023-02-10T04:31:25;102818.00;;;3.07;100.00
37610;BME280;23457;51.966;8.230;2023-02-10T04:33:51;102824.28;;;3.11;100.00
37610;BME280;23457;51.966;8.230;2023-02-10T04:36:18;102822.34;;;3.08;100.00
37610;BME280;23457;51.966;8.230;2023-02-10T04:38:45;102825.16;;;3.11;100.00
37610;BME280;23457;51.966;8.230;2023-02-10T04:41:11;102833.16;;;3.04;100.00
37610;BME280;23457;51.966;8.230;2023-02-10T04:43:38;102829.53;;;3.12;100.00
37610;BME280;23457;51.966;8.230;2023-02-10T04:46:05;102831.72;;;3.08;100.00
37610;BME280;23457;51.966;8.230;2023-02-10T04:48:31;102837.16;;;3.01;100.00
37610;BME280;23457;51.966;8.230;2023-02-10T04:50:58;102829.03;;;3.06;100.00
37610;BME280;23457;51.966;8.230;2023-02-10T04:53:25;102825.88;;;2.99;100.00
37610;BME280;23457;51.966;8.230;2023-02-10T04:55:51;102827.53;;;2.98;100.00
37610;BME280;23457;51.966;8.230;2023-02-10T04:58:18;102833.16;;;3.04;100.00
37610;BME280;23457;51.966;8.230;2023-02-10T05:00:45;102832.94;;;3.01;100.00
37610;BME280;23457;51.966;8.230;2023-02-10T05:03:11;102820.34;;;2.94;100.00
37610;BME280;23457;51.966;8.230;2023-02-10T05:05:38;102839.53;;;2.87;100.00
37610;BME280;23457;51.966;8.230;2023-02-10T05:08:05;102834.31;;;2.76;100.00
37610;BME280;23457;51.966;8.230;2023-02-10T05:10:32;102834.78;;;2.82;100.00
37610;BME280;23457;51.966;8.230;2023-02-10T05:12:59;102845.84;;;2.71;100.00
37610;BME280;23457;51.966;8.230;2023-02-10T05:15:25;102849.97;;;2.69;100.00
37610;BME280;23457;51.966;8.230;2023-02-10T05:17:52;102845.50;;;2.56;100.00
37610;BME280;23457;51.966;8.230;2023-02-10T05:20:18;102845.91;;;2.50;100.00
37610;BME280;23457;51.966;8.230;2023-02-10T05:22:45;102846.44;;;2.46;100.00
37610;BME280;23457;51.966;8.230;2023-02-10T05:25:12;102849.00;;;2.46;100.00
37610;BME280;23457;51.966;8.230;2023-02-10T05:27:39;102855.19;;;2.38;100.00
37610;BME280;23457;51.966;8.230;2023-02-10T05:30:06;102857.22;;;2.32;100.00
37610;BME280;23457;51.966;8.230;2023-02-10T05:32:33;102855.41;;;2.31;100.00
37610;BME280;23457;51.966;8.230;2023-02-10T05:34:59;102864.03;;;2.32;100.00
37610;BME280;23457;51.966;8.230;2023-02-10T05:37:26;102864.16;;;2.33;100.00
37610;BME280;23457;51.966;8.230;2023-02-10T05:39:53;102871.84;;;2.33;100.00
37610;BME280;23457;51.966;8.230;2023-02-10T05:42:19;102870.56;;;2.48;100.00
37610;BME280;23457;51.966;8.230;2023-02-10T05:44:46;102878.25;;;2.28;100.00
37610;BME280;23457;51.966;8.230;2023-02-10T05:47:13;102871.34;;;2.27;100.00
37610;BME280;23457;51.966;8.230;2023-02-10T05:49:39;102870.81;;;2.41;100.00
37610;BME280;23457;51.966;8.230;2023-02-10T05:52:06;102884.56;;;2.52;100.00
37610;BME280;23457;51.966;8.230;2023-02-10T05:54:33;102883.13;;;2.66;100.00
37610;BME280;23457;51.966;8.230;2023-02-10T05:57:00;102880.88;;;2.80;100.00
37610;BME280;23457;51.966;8.230;2023-02-10T05:59:26;102883.63;;;2.62;100.00
37610;BME280;23457;51.966;8.230;2023-02-10T06:01:53;102887.47;;;2.57;100.00
37610;BME280;23457;51.966;8.230;2023-02-10T06:04:20;102883.66;;;2.51;100.00
37610;BME280;23457;51.966;8.230;2023-02-10T06:06:49;102883.34;;;2.69;100.00
37610;BME280;23457;51.966;8.230;2023-02-10T06:09:16;102880.91;;;2.70;100.00
37610;BME280;23457;51.966;8.230;2023-02-10T06:11:42;102892.06;;;2.81;100.00
37610;BME280;23457;51.966;8.230;2023-02-10T06:14:09;102890.00;;;2.87;100.00
37610;BME280;23457;51.966;8.230;2023-02-10T06:16:36;102882.81;;;2.83;100.00
37610;BME280;23457;51.966;8.230;2023-02-10T06:19:03;102891.84;;;3.10;100.00
37610;BME280;23457;51.966;8.230;2023-02-10T06:21:30;102889.91;;;3.07;100.00
37610;BME280;23457;51.966;8.230;2023-02-10T06:23:57;102894.16;;;3.07;100.00
37610;BME280;23457;51.966;8.230;2023-02-10T06:26:23;102912.06;;;2.95;100.00
37610;BME280;23457;51.966;8.230;2023-02-10T06:28:50;102908.28;;;3.12;100.00
37610;BME280;23457;51.966;8.230;2023-02-10T06:31:17;102901.72;;;3.15;100.00
37610;BME280;23457;51.966;8.230;2023-02-10T06:33:44;102913.38;;;2.90;100.00
37610;BME280;23457;51.966;8.230;2023-02-10T06:36:10;102918.94;;;3.06;100.00
37610;BME280;23457;51.966;8.230;2023-02-10T06:38:37;102924.34;;;3.09;100.00
37610;BME280;23457;51.966;8.230;2023-02-10T06:41:05;102919.38;;;3.33;100.00
37610;BME280;23457;51.966;8.230;2023-02-10T06:43:32;102924.38;;;2.99;100.00
37610;BME280;23457;51.966;8.230;2023-02-10T06:45:59;102926.22;;;3.22;100.00
37610;BME280;23457;51.966;8.230;2023-02-10T06:48:26;102933.47;;;3.16;100.00
37610;BME280;23457;51.966;8.230;2023-02-10T06:50:53;102928.28;;;3.26;100.00
37610;BME280;23457;51.966;8.230;2023-02-10T06:53:20;102933.56;;;3.28;100.00
37610;BME280;23457;51.966;8.230;2023-02-10T06:55:46;102936.59;;;3.34;100.00
37610;BME280;23457;51.966;8.230;2023-02-10T06:58:14;102939.59;;;3.28;100.00
37610;BME280;23457;51.966;8.230;2023-02-10T07:00:41;102935.22;;;3.27;100.00
37610;BME280;23457;51.966;8.230;2023-02-10T07:03:07;102935.50;;;3.52;100.00
37610;BME280;23457;51.966;8.230;2023-02-10T07:05:34;102940.16;;;3.68;100.00
37610;BME280;23457;51.966;8.230;2023-02-10T07:08:02;102936.13;;;3.28;100.00
37610;BME280;23457;51.966;8.230;2023-02-10T07:10:32;102930.50;;;3.43;100.00
37610;BME280;23457;51.966;8.230;2023-02-10T07:12:59;102939.44;;;3.58;100.00
37610;BME280;23457;51.966;8.230;2023-02-10T07:15:26;102937.25;;;3.63;100.00
37610;BME280;23457;51.966;8.230;2023-02-10T07:17:52;102944.72;;;3.60;100.00
37610;BME280;23457;51.966;8.230;2023-02-10T07:20:20;102942.84;;;3.47;100.00
37610;BME280;23457;51.966;8.230;2023-02-10T07:22:47;102945.59;;;3.39;100.00
37610;BME280;23457;51.966;8.230;2023-02-10T07:25:18;102928.84;;;3.44;100.00
37610;BME280;23457;51.966;8.230;2023-02-10T07:27:45;102933.31;;;3.24;100.00
37610;BME280;23457;51.966;8.230;2023-02-10T07:30:12;102927.94;;;3.43;100.00
37610;BME280;23457;51.966;8.230;2023-02-10T07:32:42;102934.75;;;3.53;100.00
37610;BME280;23457;51.966;8.230;2023-02-10T07:35:13;102933.97;;;3.54;100.00
37610;BME280;23457;51.966;8.230;2023-02-10T07:37:40;102944.06;;;3.63;100.00
37610;BME280;23457;51.966;8.230;2023-02-10T07:40:09;102937.00;;;3.60;100.00
37610;BME280;23457;51.966;8.230;2023-02-10T07:42:37;102932.56;;;3.69;100.00
37610;BME280;23457;51.966;8.230;2023-02-10T07:45:24;102942.41;;;3.63;100.00
37610;BME280;23457;51.966;8.230;2023-02-10T07:47:52;102947.47;;;3.73;100.00
37610;BME280;23457;51.966;8.230;2023-02-10T07:50:19;102950.81;;;3.72;100.00
37610;BME280;23457;51.966;8.230;2023-02-10T07:52:46;102951.06;;;3.75;100.00
37610;BME280;23457;51.966;8.230;2023-02-10T07:55:14;102942.78;;;3.89;100.00
37610;BME280;23457;51.966;8.230;2023-02-10T07:57:41;102947.84;;;3.78;100.00
37610;BME280;23457;51.966;8.230;2023-02-10T08:00:08;102943.66;;;3.90;100.00
37610;BME280;23457;51.966;8.230;2023-02-10T08:02:38;102946.56;;;3.94;100.00
37610;BME280;23457;51.966;8.230;2023-02-10T08:05:05;102951.06;;;3.97;100.00
37610;BME280;23457;51.966;8.230;2023-02-10T08:07:32;102954.78;;;4.01;100.00
37610;BME280;23457;51.966;8.230;2023-02-10T08:09:59;102955.97;;;4.16;100.00
37610;BME280;23457;51.966;8.230;2023-02-10T08:12:26;102962.34;;;3.55;100.00
37610;BME280;23457;51.966;8.230;2023-02-10T08:14:52;102966.16;;;3.92;100.00
37610;BME280;23457;51.966;8.230;2023-02-10T08:17:19;102963.94;;;3.97;100.00
37610;BME280;23457;51.966;8.230;2023-02-10T08:19:46;102964.47;;;3.93;100.00
37610;BME280;23457;51.966;8.230;2023-02-10T08:22:12;102960.16;;;3.82;100.00
37610;BME280;23457;51.966;8.230;2023-02-10T08:24:39;102968.25;;;3.86;100.00
37610;BME280;23457;51.966;8.230;2023-02-10T08:27:06;102967.16;;;3.94;100.00
37610;BME280;23457;51.966;8.230;2023-02-10T08:29:32;102968.19;;;3.96;100.00
37610;BME280;23457;51.966;8.230;2023-02-10T08:31:59;102975.97;;;4.08;100.00
37610;BME280;23457;51.966;8.230;2023-02-10T08:34:26;102966.69;;;4.10;100.00
37610;BME280;23457;51.966;8.230;2023-02-10T08:36:53;102978.59;;;4.20;100.00
37610;BME280;23457;51.966;8.230;2023-02-10T08:39:20;102980.00;;;4.05;100.00
37610;BME280;23457;51.966;8.230;2023-02-10T08:41:48;102979.81;;;4.13;100.00
37610;BME280;23457;51.966;8.230;2023-02-10T08:44:14;102979.84;;;4.25;100.00
37610;BME280;23457;51.966;8.230;2023-02-10T08:46:41;102972.66;;;4.21;100.00
37610;BME280;23457;51.966;8.230;2023-02-10T08:49:08;102976.25;;;4.23;100.00
37610;BME280;23457;51.966;8.230;2023-02-10T08:51:35;102978.59;;;4.20;100.00
37610;BME280;23457;51.966;8.230;2023-02-10T08:54:05;102986.72;;;4.36;100.00
37610;BME280;23457;51.966;8.230;2023-02-10T08:56:32;102983.19;;;4.24;100.00
37610;BME280;23457;51.966;8.230;2023-02-10T08:59:12;102986.31;;;4.20;100.00
37610;BME280;23457;51.966;8.230;2023-02-10T09:01:38;102985.59;;;4.11;100.00
37610;BME280;23457;51.966;8.230;2023-02-10T09:04:06;102980.78;;;3.93;100.00
37610;BME280;23457;51.966;8.230;2023-02-10T09:06:36;102986.97;;;3.74;100.00
37610;BME280;23457;51.966;8.230;2023-02-10T09:09:08;102989.66;;;3.97;100.00
37610;BME280;23457;51.966;8.230;2023-02-10T09:11:38;102987.53;;;3.91;100.00
37610;BME280;23457;51.966;8.230;2023-02-10T09:14:05;102986.75;;;4.14;100.00
37610;BME280;23457;51.966;8.230;2023-02-10T09:16:32;102988.34;;;4.24;100.00
37610;BME280;23457;51.966;8.230;2023-02-10T09:18:59;102987.56;;;4.25;100.00
37610;BME280;23457;51.966;8.230;2023-02-10T09:21:27;102988.19;;;4.11;100.00
37610;BME280;23457;51.966;8.230;2023-02-10T09:24:07;102991.00;;;4.14;100.00
37610;BME280;23457;51.966;8.230;2023-02-10T09:26:34;102990.84;;;4.34;100.00
37610;BME280;23457;51.966;8.230;2023-02-10T09:29:00;102997.88;;;4.58;100.00
37610;BME280;23457;51.966;8.230;2023-02-10T09:31:28;102995.19;;;4.57;100.00
37610;BME280;23457;51.966;8.230;2023-02-10T09:33:55;103001.94;;;4.66;100.00
37610;BME280;23457;51.966;8.230;2023-02-10T09:36:23;102996.72;;;4.21;100.00
37610;BME280;23457;51.966;8.230;2023-02-10T09:38:50;103004.63;;;4.35;100.00
37610;BME280;23457;51.966;8.230;2023-02-10T09:54:55;103004.22;;;4.40;100.00
37610;BME280;23457;51.966;8.230;2023-02-10T09:57:39;103003.06;;;4.82;100.00
37610;BME280;23457;51.966;8.230;2023-02-10T10:00:35;102996.72;;;4.77;100.00
37610;BME280;23457;51.966;8.230;2023-02-10T10:03:07;102996.84;;;5.01;100.00
37610;BME280;23457;51.966;8.230;2023-02-10T10:11:55;102999.56;;;5.26;100.00
37610;BME280;23457;51.966;8.230;2023-02-10T10:14:25;102986.78;;;5.51;100.00
37610;BME280;23457;51.966;8.230;2023-02-10T10:22:56;102998.19;;;5.90;100.00
37610;BME280;23457;51.966;8.230;2023-02-10T10:28:17;102995.91;;;5.83;100.00
37610;BME280;23457;51.966;8.230;2023-02-10T10:33:31;103002.09;;;5.85;100.00
37610;BME280;23457;51.966;8.230;2023-02-10T10:36:01;103007.19;;;5.36;100.00
37610;BME280;23457;51.966;8.230;2023-02-10T10:38:32;102998.66;;;5.37;100.00
37610;BME280;23457;51.966;8.230;2023-02-10T10:41:03;102999.00;;;5.42;100.00
37610;BME280;23457;51.966;8.230;2023-02-10T10:43:42;102998.84;;;5.75;100.00
37610;BME280;23457;51.966;8.230;2023-02-10T10:46:19;102995.06;;;5.82;100.00
37610;BME280;23457;51.966;8.230;2023-02-10T10:48:48;102996.84;;;5.60;100.00
37610;BME280;23457;51.966;8.230;2023-02-10T10:51:16;102987.41;;;5.72;100.00
37610;BME280;23457;51.966;8.230;2023-02-10T10:53:53;102984.13;;;5.98;100.00
37610;BME280;23457;51.966;8.230;2023-02-10T10:56:26;102991.66;;;6.06;100.00
37610;BME280;23457;51.966;8.230;2023-02-10T10:58:57;102990.28;;;6.11;100.00
37610;BME280;23457;51.966;8.230;2023-02-10T11:01:35;102987.34;;;6.19;100.00
37610;BME280;23457;51.966;8.230;2023-02-10T11:04:12;102984.59;;;6.29;99.10
37610;BME280;23457;51.966;8.230;2023-02-10T11:06:42;102971.13;;;6.33;99.88
37610;BME280;23457;51.966;8.230;2023-02-10T11:09:22;102970.94;;;6.43;99.00
37610;BME280;23457;51.966;8.230;2023-02-10T11:11:51;102960.78;;;6.33;98.32
37610;BME280;23457;51.966;8.230;2023-02-10T11:14:24;102968.78;;;6.49;97.67
37610;BME280;23457;51.966;8.230;2023-02-10T11:16:54;102961.63;;;6.45;98.05
37610;BME280;23457;51.966;8.230;2023-02-10T11:19:28;102964.72;;;6.53;96.84
37610;BME280;23457;51.966;8.230;2023-02-10T11:22:18;102960.44;;;6.53;95.70
37610;BME280;23457;51.966;8.230;2023-02-10T11:24:59;102956.28;;;6.55;95.81
37610;BME280;23457;51.966;8.230;2023-02-10T11:27:26;102951.59;;;6.50;97.63
37610;BME280;23457;51.966;8.230;2023-02-10T11:29:56;102944.97;;;6.66;96.78
37610;BME280;23457;51.966;8.230;2023-02-10T11:34:56;102937.47;;;6.96;95.22
37610;BME280;23457;51.966;8.230;2023-02-10T11:37:34;102934.38;;;7.14;93.65
37610;BME280;23457;51.966;8.230;2023-02-10T11:40:16;102930.91;;;7.01;93.44
37610;BME280;23457;51.966;8.230;2023-02-10T11:42:48;102928.72;;;6.94;92.54
37610;BME280;23457;51.966;8.230;2023-02-10T11:45:23;102929.00;;;6.85;93.12
37610;BME280;23457;51.966;8.230;2023-02-10T11:48:17;102938.03;;;6.78;94.77
37610;BME280;23457;51.966;8.230;2023-02-10T11:50:45;102936.88;;;7.13;93.19
37610;BME280;23457;51.966;8.230;2023-02-10T11:53:23;102943.53;;;7.23;90.98
37610;BME280;23457;51.966;8.230;2023-02-10T12:01:42;102934.03;;;7.63;89.98
37610;BME280;23457;51.966;8.230;2023-02-10T12:09:45;102928.31;;;7.81;86.89
37610;BME280;23457;51.966;8.230;2023-02-10T12:21:18;102907.38;;;8.19;84.66
37610;BME280;23457;51.966;8.230;2023-02-10T12:24:13;102911.44;;;8.44;83.07
37610;BME280;23457;51.966;8.230;2023-02-10T12:26:53;102908.56;;;8.11;82.29
37610;BME280;23457;51.966;8.230;2023-02-10T12:35:25;102899.13;;;7.56;85.05
37610;BME280;23457;51.966;8.230;2023-02-10T12:52:44;102873.09;;;8.38;83.04
37610;BME280;23457;51.966;8.230;2023-02-10T12:55:19;102876.16;;;8.46;82.75
37610;BME280;23457;51.966;8.230;2023-02-10T12:58:00;102867.13;;;8.69;80.78
37610;BME280;23457;51.966;8.230;2023-02-10T13:00:41;102870.00;;;8.73;80.35
37610;BME280;23457;51.966;8.230;2023-02-10T13:03:17;102861.31;;;8.58;81.82
37610;BME280;23457;51.966;8.230;2023-02-10T13:05:52;102865.25;;;8.51;80.49
37610;BME280;23457;51.966;8.230;2023-02-10T13:08:29;102853.81;;;8.48;79.36
37610;BME280;23457;51.966;8.230;2023-02-10T13:11:11;102851.47;;;8.67;79.04
37610;BME280;23457;51.966;8.230;2023-02-10T13:13:41;102856.13;;;8.58;77.98
37610;BME280;23457;51.966;8.230;2023-02-10T13:16:17;102850.31;;;7.90;80.10
37610;BME280;23457;51.966;8.230;2023-02-10T13:18:54;102854.66;;;8.19;80.82
37610;BME280;23457;51.966;8.230;2023-02-10T13:24:17;102854.44;;;8.44;79.56
37610;BME280;23457;51.966;8.230;2023-02-10T13:27:00;102848.88;;;8.23;78.90
37610;BME280;23457;51.966;8.230;2023-02-10T13:34:52;102854.66;;;8.19;79.09
37610;BME280;23457;51.966;8.230;2023-02-10T13:37:39;102845.47;;;8.09;78.76
37610;BME280;23457;51.966;8.230;2023-02-10T13:40:20;102839.31;;;8.51;77.83
37610;BME280;23457;51.966;8.230;2023-02-10T13:42:55;102837.72;;;8.53;77.00
37610;BME280;23457;51.966;8.230;2023-02-10T13:45:28;102830.94;;;8.70;76.82
37610;BME280;23457;51.966;8.230;2023-02-10T13:47:59;102823.78;;;8.37;76.42
37610;BME280;23457;51.966;8.230;2023-02-10T13:53:00;102815.56;;;8.73;76.65
37610;BME280;23457;51.966;8.230;2023-02-10T13:55:30;102814.72;;;8.74;75.69
37610;BME280;23457;51.966;8.230;2023-02-10T14:00:42;102813.31;;;8.65;75.67
37610;BME280;23457;51.966;8.230;2023-02-10T14:05:49;102831.34;;;8.63;73.44
37610;BME280;23457;51.966;8.230;2023-02-10T14:08:49;102821.03;;;8.48;75.13
37610;BME280;23457;51.966;8.230;2023-02-10T14:14:15;102820.44;;;8.24;76.37
37610;BME280;23457;51.966;8.230;2023-02-10T14:16:44;102819.28;;;8.19;76.74
37610;BME280;23457;51.966;8.230;2023-02-10T14:19:28;102830.34;;;8.02;77.74
37610;BME280;23457;51.966;8.230;2023-02-10T14:21:57;102818.50;;;7.78;78.00
37610;BME280;23457;51.966;8.230;2023-02-10T14:24:30;102814.22;;;8.21;75.94
37610;BME280;23457;51.966;8.230;2023-02-10T14:27:15;102819.44;;;7.93;77.39
37610;BME280;23457;51.966;8.230;2023-02-10T14:30:18;102822.38;;;7.99;77.42
37610;BME280;23457;51.966;8.230;2023-02-10T14:32:46;102812.28;;;7.89;78.56
37610;BME280;23457;51.966;8.230;2023-02-10T14:35:21;102805.50;;;7.91;78.29
37610;BME280;23457;51.966;8.230;2023-02-10T14:37:56;102797.28;;;7.98;77.81
37610;BME280;23457;51.966;8.230;2023-02-10T14:40:25;102796.13;;;7.93;77.67
37610;BME280;23457;51.966;8.230;2023-02-10T14:42:52;102801.38;;;7.80;77.43
37610;BME280;23457;51.966;8.230;2023-02-10T14:45:24;102795.81;;;7.74;79.42
37610;BME280;23457;51.966;8.230;2023-02-10T14:47:54;102792.13;;;8.13;77.47
37610;BME280;23457;51.966;8.230;2023-02-10T14:50:31;102787.44;;;7.78;78.67
37610;BME280;23457;51.966;8.230;2023-02-10T14:52:59;102789.97;;;7.91;78.82
37610;BME280;23457;51.966;8.230;2023-02-10T14:57:56;102781.41;;;7.92;78.78
37610;BME280;23457;51.966;8.230;2023-02-10T15:00:24;102777.31;;;8.10;77.56
37610;BME280;23457;51.966;8.230;2023-02-10T15:02:56;102784.59;;;7.88;78.37
37610;BME280;23457;51.966;8.230;2023-02-10T15:05:26;102779.97;;;8.12;77.06
37610;BME280;23457;51.966;8.230;2023-02-10T15:07:55;102786.84;;;7.82;78.49